createdAt,value
2019-04-30T00:01:43.634Z,13.00
2019-04-30T00:04:15.640Z,13.10
2019-04-30T00:06:42.579Z,13.20
2019-04-30T00:09:15.099Z,13.30
2019-04-30T00:11:40.616Z,13.30
2019-04-30T00:14:07.206Z,13.40
2019-04-30T00:16:36.229Z,13.30
2019-04-30T00:19:03.277Z,13.10
2019-04-30T00:21:29.916Z,13.10
2019-04-30T00:24:00.806Z,12.90
2019-04-30T00:26:25.411Z,12.90
2019-04-30T00:28:52.214Z,12.90
2019-04-30T00:31:23.698Z,12.90
2019-04-30T00:33:47.435Z,12.90
2019-04-30T00:36:14.845Z,12.90
2019-04-30T00:38:42.611Z,13.00
2019-04-30T00:41:10.242Z,13.10
2019-04-30T00:43:37.667Z,13.10
2019-04-30T00:46:07.617Z,13.10
2019-04-30T00:48:35.710Z,13.20
2019-04-30T00:51:02.646Z,13.20
2019-04-30T00:53:29.256Z,13.00
2019-04-30T00:55:57.385Z,13.00
2019-04-30T00:58:28.518Z,13.00
2019-04-30T01:01:15.152Z,13.00
2019-04-30T01:03:49.356Z,13.00
2019-04-30T01:06:12.438Z,13.00
2019-04-30T01:08:39.362Z,13.00
2019-04-30T01:11:09.578Z,13.00
2019-04-30T01:13:36.494Z,13.00
2019-04-30T01:16:03.284Z,13.10
2019-04-30T01:18:32.025Z,13.30
2019-04-30T01:20:58.695Z,13.40
2019-04-30T01:23:25.552Z,13.30
2019-04-30T01:25:52.328Z,13.40
2019-04-30T01:28:22.901Z,13.40
2019-04-30T01:30:49.432Z,13.30
2019-04-30T01:33:16.307Z,13.20
2019-04-30T01:35:43.012Z,13.00
2019-04-30T01:38:12.772Z,12.90
2019-04-30T01:40:42.773Z,13.00
2019-04-30T01:43:10.330Z,13.00
2019-04-30T01:45:38.689Z,13.20
2019-04-30T01:48:10.765Z,13.00
2019-04-30T01:50:38.632Z,13.10
2019-04-30T01:53:04.777Z,13.00
2019-04-30T01:55:41.296Z,12.80
2019-04-30T01:58:19.126Z,12.60
2019-04-30T02:00:52.878Z,12.60
2019-04-30T02:03:21.328Z,12.70
2019-04-30T02:05:49.716Z,12.80
2019-04-30T02:08:16.618Z,12.80
2019-04-30T02:10:43.344Z,12.90
2019-04-30T02:13:10.196Z,13.00
2019-04-30T02:15:36.973Z,13.00
2019-04-30T02:18:04.182Z,13.10
2019-04-30T02:20:30.964Z,13.30
2019-04-30T02:22:58.669Z,13.50
2019-04-30T02:25:25.565Z,13.60
2019-04-30T02:27:52.222Z,13.50
2019-04-30T02:30:20.869Z,13.40
2019-04-30T02:32:52.090Z,13.40
2019-04-30T02:35:34.615Z,13.50
2019-04-30T02:38:12.036Z,13.50
2019-04-30T02:40:39.304Z,13.30
2019-04-30T02:43:09.463Z,13.30
2019-04-30T02:45:40.134Z,13.40
2019-04-30T02:48:11.415Z,13.40
2019-04-30T02:50:39.374Z,13.60
2019-04-30T02:54:00.388Z,13.50
2019-04-30T02:56:26.995Z,13.60
2019-04-30T02:58:54.384Z,13.60
2019-04-30T03:01:21.101Z,13.50
2019-04-30T03:03:50.050Z,13.50
2019-04-30T03:06:16.283Z,13.20
2019-04-30T03:08:43.207Z,13.20
2019-04-30T03:11:12.658Z,13.10
2019-04-30T03:13:42.729Z,13.20
2019-04-30T03:16:15.619Z,13.30
2019-04-30T03:18:59.533Z,13.10
2019-04-30T03:21:44.823Z,13.10
2019-04-30T03:24:15.501Z,13.10
2019-04-30T03:26:43.409Z,13.10
2019-04-30T03:29:11.492Z,13.00
2019-04-30T03:31:44.278Z,13.00
2019-04-30T03:34:16.851Z,13.00
2019-04-30T03:36:40.388Z,13.10
2019-04-30T03:39:11.336Z,13.20
2019-04-30T03:41:46.922Z,13.30
2019-04-30T03:44:21.695Z,13.30
2019-04-30T03:46:40.451Z,13.10
2019-04-30T03:49:10.616Z,13.00
2019-04-30T03:51:35.924Z,13.00
2019-04-30T03:54:03.216Z,13.10
2019-04-30T03:56:32.897Z,13.10
2019-04-30T03:59:00.300Z,13.20
2019-04-30T04:01:49.913Z,13.30
2019-04-30T04:04:27.144Z,13.10
2019-04-30T04:07:00.089Z,13.10
2019-04-30T04:09:32.703Z,13.00
2019-04-30T04:12:23.944Z,13.10
2019-04-30T04:14:53.348Z,13.10
2019-04-30T04:17:23.991Z,13.30
2019-04-30T04:22:33.435Z,13.40
2019-04-30T04:25:01.398Z,13.30
2019-04-30T04:27:30.045Z,13.30
2019-04-30T04:30:01.216Z,13.30
2019-04-30T04:32:30.948Z,13.40
2019-04-30T04:35:00.165Z,13.40
2019-04-30T04:37:29.809Z,13.40
2019-04-30T04:39:59.342Z,13.50
2019-04-30T04:42:32.358Z,13.30
2019-04-30T04:44:56.436Z,13.50
2019-04-30T04:47:30.924Z,13.40
2019-04-30T04:50:00.648Z,13.30
2019-04-30T04:52:31.133Z,13.30
2019-04-30T04:55:00.148Z,13.30
2019-04-30T04:57:27.095Z,13.40
2019-04-30T04:59:54.289Z,13.30
2019-04-30T05:02:39.686Z,13.20
2019-04-30T05:05:13.147Z,13.10
2019-04-30T05:07:45.179Z,13.00
2019-04-30T05:10:12.810Z,13.00
2019-04-30T05:13:06.725Z,13.10
2019-04-30T05:15:36.509Z,13.00
2019-04-30T05:18:09.208Z,13.20
2019-04-30T05:20:41.232Z,13.30
2019-04-30T05:23:09.479Z,13.30
2019-04-30T05:25:36.201Z,13.20
2019-04-30T05:28:03.640Z,13.20
2019-04-30T05:30:30.354Z,13.20
2019-04-30T05:32:58.493Z,13.10
2019-04-30T05:35:25.653Z,13.00
2019-04-30T05:37:52.293Z,12.90
2019-04-30T05:40:19.160Z,12.90
2019-04-30T05:42:45.799Z,13.00
2019-04-30T05:45:12.699Z,13.10
2019-04-30T05:47:39.538Z,13.20
2019-04-30T05:50:08.675Z,13.20
2019-04-30T05:52:35.315Z,13.10
2019-04-30T05:55:03.223Z,13.10
2019-04-30T05:57:30.031Z,13.10
2019-04-30T05:59:58.483Z,13.00
2019-04-30T06:02:25.370Z,13.00
2019-04-30T06:04:52.153Z,13.00
2019-04-30T06:07:19.138Z,13.00
2019-04-30T06:09:59.595Z,13.10
2019-04-30T06:12:34.631Z,13.00
2019-04-30T06:15:16.000Z,12.90
2019-04-30T06:17:57.325Z,13.00
2019-04-30T06:20:18.370Z,12.90
2019-04-30T06:22:42.943Z,13.00
2019-04-30T06:25:10.792Z,13.00
2019-04-30T06:27:38.719Z,13.10
2019-04-30T06:30:07.174Z,12.90
2019-04-30T06:32:34.181Z,13.00
2019-04-30T06:35:00.921Z,13.00
2019-04-30T06:37:28.802Z,12.90
2019-04-30T06:39:56.639Z,13.00
2019-04-30T06:42:23.434Z,13.20
2019-04-30T06:44:50.177Z,13.00
2019-04-30T06:47:20.061Z,13.00
2019-04-30T06:49:51.360Z,13.00
2019-04-30T06:52:23.037Z,13.10
2019-04-30T06:54:49.984Z,13.10
2019-04-30T06:57:19.811Z,13.00
2019-04-30T06:59:47.061Z,13.00
2019-04-30T07:02:13.602Z,12.90
2019-04-30T07:04:40.291Z,13.00
2019-04-30T07:07:09.067Z,13.00
2019-04-30T07:09:53.238Z,13.10
2019-04-30T07:12:27.101Z,13.20
2019-04-30T07:14:46.207Z,13.40
2019-04-30T07:17:13.162Z,13.40
2019-04-30T07:19:53.359Z,13.40
2019-04-30T07:22:09.087Z,13.40
2019-04-30T07:24:35.907Z,13.50
2019-04-30T07:27:02.934Z,13.50
2019-04-30T07:29:30.174Z,13.60
2019-04-30T07:31:59.126Z,13.60
2019-04-30T07:34:37.069Z,13.50
2019-04-30T07:37:15.929Z,13.50
2019-04-30T07:39:33.873Z,13.60
2019-04-30T07:42:00.664Z,13.60
2019-04-30T07:44:36.252Z,13.60
2019-04-30T07:46:59.354Z,13.70
2019-04-30T07:52:06.915Z,13.60
2019-04-30T07:54:34.269Z,13.60
2019-04-30T07:57:00.941Z,13.80
2019-04-30T07:59:30.054Z,13.70
2019-04-30T08:02:10.038Z,13.70
2019-04-30T08:04:34.629Z,13.90
2019-04-30T08:07:04.866Z,13.90
2019-04-30T08:09:36.804Z,13.70
2019-04-30T08:09:39.163Z,13.90
2019-04-30T08:12:02.653Z,13.80
2019-04-30T08:14:29.589Z,13.60
2019-04-30T08:16:58.896Z,13.60
2019-04-30T08:19:25.781Z,13.50
2019-04-30T08:21:53.081Z,13.50
2019-04-30T08:24:29.069Z,13.60
2019-04-30T08:26:56.343Z,13.70
2019-04-30T08:29:25.295Z,13.80
2019-04-30T08:31:59.206Z,13.60
2019-04-30T08:34:25.988Z,13.60
2019-04-30T08:36:53.321Z,13.60
2019-04-30T08:39:20.309Z,13.70
2019-04-30T08:41:46.972Z,14.10
2019-04-30T08:44:13.755Z,14.60
2019-04-30T08:46:40.565Z,15.20
2019-04-30T08:49:09.821Z,15.80
2019-04-30T08:51:36.353Z,16.90
2019-04-30T08:54:03.165Z,17.50
2019-04-30T08:56:29.909Z,18.00
2019-04-30T08:58:56.839Z,18.00
2019-04-30T09:01:23.492Z,18.10
2019-04-30T09:03:51.353Z,18.00
2019-04-30T09:06:23.626Z,17.90
2019-04-30T09:08:59.342Z,17.60
2019-04-30T09:11:38.542Z,17.20
2019-04-30T09:13:59.180Z,17.10
2019-04-30T09:16:34.679Z,16.70
2019-04-30T09:19:05.628Z,16.50
2019-04-30T09:21:40.274Z,16.50
2019-04-30T09:24:30.952Z,16.70
2019-04-30T09:26:59.322Z,16.60
2019-04-30T09:29:26.138Z,16.90
2019-04-30T09:31:59.615Z,17.20
2019-04-30T09:34:26.345Z,17.30
2019-04-30T09:36:52.986Z,17.70
2019-04-30T09:39:22.860Z,18.20
2019-04-30T09:41:49.623Z,18.30
2019-04-30T09:44:16.386Z,18.20
2019-04-30T09:46:43.022Z,18.20
2019-04-30T09:49:11.764Z,18.50
2019-04-30T09:51:39.421Z,18.70
2019-04-30T09:54:09.467Z,18.90
2019-04-30T09:56:39.251Z,19.10
2019-04-30T09:59:06.802Z,18.90
2019-04-30T10:01:34.570Z,19.00
2019-04-30T10:04:02.104Z,19.30
2019-04-30T10:06:39.091Z,20.10
2019-04-30T10:08:59.742Z,20.50
2019-04-30T10:11:49.853Z,20.60
2019-04-30T10:14:15.004Z,20.60
2019-04-30T10:16:43.685Z,20.50
2019-04-30T10:19:10.389Z,20.00
2019-04-30T10:21:38.865Z,19.80
2019-04-30T10:24:14.710Z,19.70
2019-04-30T10:26:38.480Z,19.40
2019-04-30T10:29:06.354Z,19.20
2019-04-30T10:31:32.952Z,18.90
2019-04-30T10:34:01.608Z,19.10
2019-04-30T10:36:29.530Z,19.20
2019-04-30T10:38:56.743Z,19.40
2019-04-30T10:41:23.478Z,19.30
2019-04-30T10:43:50.356Z,19.00
2019-04-30T10:46:17.120Z,19.30
2019-04-30T10:48:44.114Z,19.70
2019-04-30T10:51:10.984Z,19.80
2019-04-30T10:53:37.554Z,19.70
2019-04-30T10:56:04.474Z,19.60
2019-04-30T10:58:33.414Z,19.50
2019-04-30T11:01:01.955Z,19.10
2019-04-30T11:03:29.131Z,18.70
2019-04-30T11:05:56.232Z,18.50
2019-04-30T11:08:22.945Z,18.30
2019-04-30T11:10:50.892Z,18.70
2019-04-30T11:13:17.576Z,19.40
2019-04-30T11:15:44.388Z,19.70
2019-04-30T11:18:11.382Z,19.60
2019-04-30T11:20:39.740Z,19.40
2019-04-30T11:23:14.284Z,19.60
2019-04-30T11:25:36.861Z,19.70
2019-04-30T11:28:04.896Z,19.70
2019-04-30T11:30:32.193Z,19.70
2019-04-30T11:32:59.436Z,19.40
2019-04-30T11:35:26.248Z,19.30
2019-04-30T11:37:53.002Z,18.90
2019-04-30T11:40:33.959Z,19.00
2019-04-30T11:42:56.772Z,19.00
2019-04-30T11:45:43.916Z,19.70
2019-04-30T11:48:10.604Z,19.90
2019-04-30T11:50:43.600Z,20.10
2019-04-30T11:53:24.544Z,19.90
2019-04-30T11:55:44.344Z,19.50
2019-04-30T11:58:30.341Z,19.20
2019-04-30T12:01:02.184Z,19.00
2019-04-30T12:03:32.131Z,18.90
2019-04-30T12:05:58.990Z,18.90
2019-04-30T12:08:29.347Z,18.90
2019-04-30T12:10:58.122Z,19.00
2019-04-30T12:13:32.611Z,18.90
2019-04-30T12:15:59.546Z,18.80
2019-04-30T12:18:26.377Z,18.70
2019-04-30T12:20:53.271Z,18.60
2019-04-30T12:23:22.054Z,18.60
2019-04-30T12:25:49.260Z,19.00
2019-04-30T12:28:17.105Z,19.10
2019-04-30T12:30:44.708Z,19.30
2019-04-30T12:33:21.234Z,19.70
2019-04-30T12:35:46.136Z,20.10
2019-04-30T12:38:19.178Z,20.30
2019-04-30T12:40:50.701Z,20.10
2019-04-30T12:43:18.442Z,19.90
2019-04-30T12:45:45.033Z,20.10
2019-04-30T12:48:29.558Z,19.70
2019-04-30T12:51:14.895Z,19.30
2019-04-30T12:53:55.416Z,19.10
2019-04-30T12:56:29.896Z,19.40
2019-04-30T12:59:05.708Z,19.30
2019-04-30T13:01:34.231Z,19.20
2019-04-30T13:04:01.547Z,19.50
2019-04-30T13:06:28.997Z,19.30
2019-04-30T13:08:56.421Z,19.10
2019-04-30T13:11:23.969Z,18.80
2019-04-30T13:13:51.540Z,18.80
2019-04-30T13:16:19.417Z,19.00
2019-04-30T13:18:46.135Z,19.00
2019-04-30T13:21:12.946Z,18.70
2019-04-30T13:23:39.650Z,18.80
2019-04-30T13:26:08.927Z,18.70
2019-04-30T13:28:37.648Z,18.70
2019-04-30T13:31:04.486Z,18.60
2019-04-30T13:33:36.136Z,18.60
2019-04-30T13:36:03.377Z,18.50
2019-04-30T13:38:45.146Z,18.40
2019-04-30T13:41:05.341Z,18.30
2019-04-30T13:43:50.516Z,18.20
2019-04-30T13:46:19.232Z,18.30
2019-04-30T13:48:45.934Z,18.60
2019-04-30T13:51:12.660Z,18.80
2019-04-30T13:53:39.600Z,18.60
2019-04-30T13:56:06.583Z,18.40
2019-04-30T13:58:33.229Z,18.10
2019-04-30T14:01:01.855Z,18.20
2019-04-30T14:03:33.201Z,18.50
2019-04-30T14:06:00.016Z,18.60
2019-04-30T14:08:29.042Z,18.60
2019-04-30T14:10:55.676Z,18.60
2019-04-30T14:13:23.409Z,18.60
2019-04-30T14:15:50.433Z,18.50
2019-04-30T14:18:28.468Z,18.50
2019-04-30T14:20:47.056Z,18.50
2019-04-30T14:23:13.783Z,18.40
2019-04-30T14:25:56.422Z,18.40
2019-04-30T14:28:19.044Z,18.80
2019-04-30T14:30:45.961Z,19.00
2019-04-30T14:33:23.351Z,19.00
2019-04-30T14:35:41.587Z,19.10
2019-04-30T14:38:09.070Z,18.90
2019-04-30T14:40:36.239Z,18.70
2019-04-30T14:43:05.416Z,18.40
2019-04-30T14:45:51.189Z,18.30
2019-04-30T14:48:23.946Z,18.40
2019-04-30T14:50:51.253Z,18.50
2019-04-30T14:53:19.997Z,18.70
2019-04-30T14:55:49.548Z,18.80
2019-04-30T14:58:20.985Z,18.60
2019-04-30T15:00:49.816Z,18.60
2019-04-30T15:03:19.393Z,18.50
2019-04-30T15:05:49.476Z,18.70
2019-04-30T15:08:14.883Z,18.70
2019-04-30T15:10:41.808Z,18.80
2019-04-30T15:13:09.847Z,18.70
2019-04-30T15:15:36.451Z,18.30
2019-04-30T15:18:03.375Z,18.10
2019-04-30T15:20:30.116Z,18.20
2019-04-30T15:23:08.781Z,18.20
2019-04-30T15:25:36.010Z,18.30
2019-04-30T15:28:02.830Z,18.40
2019-04-30T15:30:31.673Z,18.40
2019-04-30T15:33:06.176Z,18.50
2019-04-30T15:35:32.836Z,18.20
2019-04-30T15:38:00.549Z,18.30
2019-04-30T15:40:28.844Z,18.40
2019-04-30T15:42:57.602Z,18.50
2019-04-30T15:45:24.333Z,18.60
2019-04-30T15:47:52.879Z,18.20
2019-04-30T15:50:20.287Z,18.00
2019-04-30T15:52:48.621Z,18.00
2019-04-30T15:55:18.979Z,18.00
2019-04-30T15:57:59.574Z,18.00
2019-04-30T16:00:29.258Z,17.90
2019-04-30T16:03:00.154Z,18.00
2019-04-30T16:05:31.621Z,18.20
2019-04-30T16:08:00.416Z,18.30
2019-04-30T16:10:41.341Z,18.00
2019-04-30T16:13:14.568Z,17.80
2019-04-30T16:15:45.990Z,17.80
2019-04-30T16:18:13.362Z,17.60
2019-04-30T16:20:42.327Z,17.50
2019-04-30T16:23:10.123Z,17.40
2019-04-30T16:25:39.029Z,17.20
2019-04-30T16:30:57.549Z,17.30
2019-04-30T16:33:25.394Z,17.40
2019-04-30T16:35:55.758Z,17.30
2019-04-30T16:38:24.367Z,17.30
2019-04-30T16:41:00.202Z,17.20
2019-04-30T16:43:29.268Z,17.10
2019-04-30T16:45:55.376Z,17.00
2019-04-30T16:48:21.977Z,17.40
2019-04-30T16:50:51.250Z,17.40
2019-04-30T16:53:17.594Z,17.40
2019-04-30T16:55:44.246Z,17.50
2019-04-30T16:58:10.983Z,17.30
2019-04-30T17:00:39.212Z,17.20
2019-04-30T17:03:19.849Z,17.20
2019-04-30T17:05:57.172Z,17.10
2019-04-30T17:08:31.827Z,16.70
2019-04-30T17:11:00.474Z,16.80
2019-04-30T17:13:44.340Z,16.60
2019-04-30T17:16:12.854Z,16.40
2019-04-30T17:18:41.830Z,16.40
2019-04-30T17:21:09.877Z,16.40
2019-04-30T17:23:36.466Z,16.50
2019-04-30T17:26:03.320Z,16.50
2019-04-30T17:28:30.606Z,16.40
2019-04-30T17:30:58.496Z,16.30
2019-04-30T17:33:25.656Z,16.40
2019-04-30T17:35:52.648Z,16.50
2019-04-30T17:38:19.338Z,16.30
2019-04-30T17:40:45.980Z,16.30
2019-04-30T17:43:12.724Z,16.30
2019-04-30T17:45:41.092Z,16.30
2019-04-30T17:48:07.934Z,16.20
2019-04-30T17:50:34.678Z,16.30
2019-04-30T17:53:01.856Z,16.30
2019-04-30T17:55:29.189Z,16.10
2019-04-30T17:57:55.808Z,16.00
2019-04-30T18:00:23.115Z,16.10
2019-04-30T18:02:50.196Z,16.10
2019-04-30T18:05:16.816Z,16.10
2019-04-30T18:07:43.589Z,16.00
2019-04-30T18:10:12.586Z,16.00
2019-04-30T18:12:40.664Z,15.80
2019-04-30T18:15:13.143Z,15.80
2019-04-30T18:17:40.296Z,15.60
2019-04-30T18:20:19.180Z,15.40
2019-04-30T18:22:53.811Z,15.40
2019-04-30T18:25:31.386Z,15.50
2019-04-30T18:28:01.028Z,15.50
2019-04-30T18:30:32.518Z,15.50
2019-04-30T18:33:03.720Z,15.60
2019-04-30T18:35:32.582Z,15.60
2019-04-30T18:38:01.201Z,15.50
2019-04-30T18:40:29.599Z,15.40
2019-04-30T18:42:56.795Z,15.40
2019-04-30T18:45:23.585Z,15.40
2019-04-30T18:47:50.202Z,15.30
2019-04-30T18:50:17.144Z,15.20
2019-04-30T18:52:43.900Z,15.20
2019-04-30T18:55:10.827Z,15.20
2019-04-30T18:57:37.643Z,15.20
2019-04-30T19:00:06.885Z,15.10
2019-04-30T19:02:33.950Z,15.20
2019-04-30T19:05:00.707Z,15.20
2019-04-30T19:07:29.330Z,15.20
2019-04-30T19:10:10.048Z,15.10
2019-04-30T19:12:56.346Z,15.10
2019-04-30T19:16:14.235Z,14.90
2019-04-30T19:18:28.071Z,14.90
2019-04-30T19:20:57.472Z,14.80
2019-04-30T19:23:24.094Z,14.90
2019-04-30T19:25:51.086Z,14.90
2019-04-30T19:28:19.705Z,14.80
2019-04-30T19:30:55.916Z,14.70
2019-04-30T19:33:16.432Z,14.80
2019-04-30T19:35:43.171Z,15.00
2019-04-30T19:38:09.932Z,15.00
2019-04-30T19:40:36.653Z,15.00
2019-04-30T19:43:03.951Z,15.00
2019-04-30T19:45:31.862Z,14.80
2019-04-30T19:47:58.698Z,14.70
2019-04-30T19:50:25.752Z,14.50
2019-04-30T19:52:52.362Z,14.60
2019-04-30T19:55:20.623Z,14.60
2019-04-30T19:57:48.371Z,14.50
2019-04-30T20:00:16.433Z,14.60
2019-04-30T20:02:43.300Z,14.60
2019-04-30T20:05:10.149Z,14.60
2019-04-30T20:07:37.050Z,14.60
2019-04-30T20:10:05.621Z,14.50
2019-04-30T20:12:32.249Z,14.40
2019-04-30T20:15:00.507Z,14.40
2019-04-30T20:17:29.089Z,14.30
2019-04-30T20:19:59.719Z,14.20
2019-04-30T20:22:29.575Z,14.20
2019-04-30T20:24:56.888Z,14.20
2019-04-30T20:27:23.965Z,14.20
2019-04-30T20:29:55.213Z,14.10
2019-04-30T20:32:33.838Z,14.20
2019-04-30T20:34:51.620Z,14.20
2019-04-30T20:37:19.658Z,14.20
2019-04-30T20:39:51.370Z,14.00
2019-04-30T20:42:21.407Z,14.00
2019-04-30T20:44:48.981Z,14.00
2019-04-30T20:47:21.083Z,14.10
2019-04-30T20:49:51.118Z,14.00
2019-04-30T20:52:20.675Z,14.00
2019-04-30T20:54:48.866Z,14.00
2019-04-30T20:57:16.970Z,14.00
2019-04-30T20:59:44.039Z,14.00
2019-04-30T21:02:12.195Z,14.00
2019-04-30T21:04:38.888Z,14.00
2019-04-30T21:07:09.439Z,13.90
2019-04-30T21:09:36.405Z,13.80
2019-04-30T21:12:04.574Z,13.80
2019-04-30T21:14:31.521Z,13.80
2019-04-30T21:16:58.697Z,13.90
2019-04-30T21:19:26.751Z,13.70
2019-04-30T21:21:55.356Z,13.70
2019-04-30T21:24:27.484Z,13.80
2019-04-30T21:26:54.248Z,13.70
2019-04-30T21:29:20.917Z,13.80
2019-04-30T21:31:53.355Z,13.70
2019-04-30T21:34:23.188Z,13.70
2019-04-30T21:36:54.395Z,13.80
2019-04-30T21:39:21.038Z,13.80
2019-04-30T21:41:49.444Z,13.70
2019-04-30T21:44:17.471Z,13.60
2019-04-30T21:46:48.714Z,13.60
2019-04-30T21:49:21.036Z,13.60
2019-04-30T21:51:55.602Z,13.60
2019-04-30T21:54:38.374Z,13.50
2019-04-30T21:57:13.253Z,13.60
2019-04-30T22:00:03.772Z,13.50
2019-04-30T22:05:46.945Z,13.50
2019-04-30T22:14:12.564Z,13.50
2019-04-30T22:16:44.136Z,13.60
2019-04-30T22:25:09.449Z,13.60
2019-04-30T22:27:39.248Z,13.60
2019-04-30T22:30:18.639Z,13.60
2019-04-30T22:32:54.786Z,13.50
2019-04-30T22:35:27.948Z,13.50
2019-04-30T22:37:59.205Z,13.50
2019-04-30T22:40:32.683Z,13.50
2019-04-30T22:43:02.278Z,13.50
2019-04-30T22:45:46.296Z,13.50
2019-04-30T22:48:18.720Z,13.50
2019-04-30T22:50:46.287Z,13.50
2019-04-30T22:53:14.917Z,13.50
2019-04-30T22:55:51.242Z,13.60
2019-04-30T22:58:20.228Z,13.60
2019-04-30T23:00:53.163Z,13.50
2019-04-30T23:03:27.327Z,13.50
2019-04-30T23:05:59.531Z,13.60
2019-04-30T23:08:31.739Z,13.60
2019-04-30T23:11:01.647Z,13.60
2019-04-30T23:13:28.551Z,13.50
2019-04-30T23:15:57.142Z,13.50
2019-04-30T23:18:23.927Z,13.50
2019-04-30T23:20:56.835Z,13.40
2019-04-30T23:23:27.622Z,13.50
2019-04-30T23:25:54.467Z,13.50
2019-04-30T23:28:21.320Z,13.50
2019-04-30T23:30:47.955Z,13.50
2019-04-30T23:33:15.071Z,13.30
2019-04-30T23:35:41.855Z,13.40
2019-04-30T23:38:08.587Z,13.50
2019-04-30T23:40:48.573Z,13.40
2019-04-30T23:43:15.409Z,13.40
2019-04-30T23:45:42.121Z,13.40
2019-04-30T23:48:09.919Z,13.30
2019-04-30T23:50:36.559Z,13.30
2019-04-30T23:53:03.323Z,13.30
2019-04-30T23:55:29.982Z,13.30
2019-04-30T23:57:56.673Z,13.30
